Time;durP1;ratioP1;P1;durP2;ratioP2;P2;SDS_P1;SDS_P2;PMS_P1;PMS_P2;Temp;Humidity;BMP_temperature;BMP_pressure;BME280_temperature;BME280_humidity;BME280_pressure;Samples;Min_cycle;Max_cycle;Signal;HPM_P1;HPM_P2
2023/10/29 00:00:55;;;;;;;4.82;2.55;;;;;;;11.23;100.00;99089.63;1017531;29;20451;-53
2023/10/29 00:01:43;;;;;;;;;;;;;;;11.22;100.00;99080.00;1010134;29;20396;-50
2023/10/29 00:02:49;;;;;;;8.13;2.55;;;;;;;11.19;100.00;99082.41;1009980;29;19924;-51
2023/10/29 00:03:33;;;;;;;3.80;3.00;;;;;;;11.20;100.00;99084.78;1022522;29;20315;-51
2023/10/29 00:04:14;;;;;;;3.47;2.92;;;;;;;11.19;100.00;99083.19;1020918;29;20319;-53
2023/10/29 00:05:11;;;;;;;4.63;2.88;;;;;;;11.18;100.00;99089.59;1014411;29;20316;-52
2023/10/29 00:05:47;;;;;;;5.03;2.80;;;;;;;11.24;100.00;99096.56;1008385;29;20389;-50
2023/10/29 00:06:19;;;;;;;5.85;2.63;;;;;;;11.20;100.00;99100.78;1014704;29;20386;-51
2023/10/29 00:06:51;;;;;;;4.05;2.90;;;;;;;11.20;100.00;99084.78;1017138;29;20754;-48
2023/10/29 00:07:22;;;;;;;6.38;2.35;;;;;;;11.23;100.00;99094.97;1020665;28;20470;-49
2023/10/29 00:07:54;;;;;;;6.07;2.97;;;;;;;11.20;100.00;99090.13;1022813;28;20307;-49
2023/10/29 00:08:25;;;;;;;2.97;2.50;;;;;;;11.25;100.00;99087.50;1022756;29;20317;-51
2023/10/29 00:08:57;;;;;;;2.65;2.45;;;;;;;11.27;100.00;99095.22;1022865;28;20611;-48
2023/10/29 00:09:29;;;;;;;5.60;2.90;;;;;;;11.28;100.00;99089.63;1022980;28;20303;-48
2023/10/29 00:10:01;;;;;;;4.97;2.85;;;;;;;11.27;100.00;99096.03;1022892;28;20749;-49
2023/10/29 00:10:32;;;;;;;4.57;3.38;;;;;;;11.28;100.00;99096.84;1022473;28;20294;-52
2023/10/29 00:11:04;;;;;;;7.57;2.65;;;;;;;11.30;100.00;99095.50;1022160;29;20307;-49
2023/10/29 00:11:35;;;;;;;2.83;2.50;;;;;;;11.32;100.00;99092.56;1022284;29;20309;-48
2023/10/29 00:12:07;;;;;;;4.07;2.72;;;;;;;11.30;100.00;99095.50;1022308;28;20321;-49
2023/10/29 00:12:39;;;;;;;3.25;2.65;;;;;;;11.24;100.00;99091.22;1023004;28;20303;-50
2023/10/29 00:13:10;;;;;;;4.88;3.38;;;;;;;11.25;100.00;99087.50;1026398;28;20322;-49
2023/10/29 00:13:42;;;;;;;8.35;2.60;;;;;;;11.27;100.00;99093.38;1025902;28;20310;-50
2023/10/29 00:14:14;;;;;;;6.03;2.80;;;;;;;11.19;100.00;99093.84;1022899;28;20311;-49
2023/10/29 00:14:46;;;;;;;2.65;2.10;;;;;;;11.17;100.00;99085.31;1022621;28;20346;-51
2023/10/29 00:15:18;;;;;;;3.05;2.40;;;;;;;11.16;100.00;99097.06;1022852;28;20347;-50
2023/10/29 00:15:50;;;;;;;5.70;2.25;;;;;;;11.20;100.00;99089.31;1022885;28;20381;-52
2023/10/29 00:16:22;;;;;;;4.00;3.10;;;;;;;11.23;100.00;99100.28;1022491;29;20321;-49
2023/10/29 00:16:53;;;;;;;4.63;2.65;;;;;;;11.29;100.00;99088.56;1022969;28;20309;-50
2023/10/29 00:17:25;;;;;;;3.03;2.72;;;;;;;11.27;100.00;99088.03;1022920;28;20298;-51
2023/10/29 00:17:56;;;;;;;4.22;2.20;;;;;;;11.25;100.00;99090.16;1022837;28;20299;-52
2023/10/29 00:18:29;;;;;;;4.00;2.42;;;;;;;11.30;100.00;99073.38;1022825;28;20832;-48
2023/10/29 00:19:00;;;;;;;5.25;1.80;;;;;;;11.20;100.00;99076.81;1022618;28;20303;-48
2023/10/29 00:19:32;;;;;;;4.75;2.28;;;;;;;11.28;100.00;99065.66;1023189;28;20310;-50
2023/10/29 00:20:07;;;;;;;3.03;2.00;;;;;;;11.28;100.00;99070.97;1022591;28;20298;-48
2023/10/29 00:20:39;;;;;;;3.88;1.90;;;;;;;11.30;100.00;99073.38;1022872;28;20702;-51
2023/10/29 00:21:11;;;;;;;3.53;2.05;;;;;;;11.31;100.00;99064.31;1022955;28;20290;-49
2023/10/29 00:21:42;;;;;;;5.57;2.75;;;;;;;11.27;100.00;99074.72;1023257;28;20294;-51
2023/10/29 00:22:14;;;;;;;2.58;1.80;;;;;;;11.34;100.00;99069.13;1023872;28;20313;-52
2023/10/29 00:22:45;;;;;;;2.38;2.13;;;;;;;11.32;100.00;99069.38;1023828;28;20294;-49
2023/10/29 00:23:17;;;;;;;6.43;2.72;;;;;;;11.33;100.00;99078.97;1023609;28;20305;-50
2023/10/29 00:23:48;;;;;;;3.13;1.77;;;;;;;11.33;100.00;99070.97;1023527;28;20358;-48
2023/10/29 00:24:22;;;;;;;12.43;2.22;;;;;;;11.34;100.00;99072.59;1023612;28;20337;-50
2023/10/29 00:24:53;;;;;;;2.55;2.15;;;;;;;11.35;100.00;99076.84;1023308;28;20805;-49
2023/10/29 00:25:25;;;;;;;3.45;2.03;;;;;;;11.33;100.00;99078.97;1023391;29;20325;-51
2023/10/29 00:25:57;;;;;;;3.30;1.77;;;;;;;11.37;100.00;99080.03;1023531;28;20811;-48
2023/10/29 00:26:29;;;;;;;2.47;1.70;;;;;;;11.31;100.00;99080.31;1023389;28;20368;-49
2023/10/29 00:27:01;;;;;;;6.38;1.60;;;;;;;11.31;100.00;99075.78;1023618;28;20294;-50
2023/10/29 00:27:33;;;;;;;2.60;2.03;;;;;;;11.37;100.00;99079.25;1023447;28;20299;-51
2023/10/29 00:28:04;;;;;;;6.25;2.30;;;;;;;11.32;100.00;99082.72;1023242;28;20312;-50
2023/10/29 00:28:36;;;;;;;2.67;1.88;;;;;;;11.37;100.00;99069.38;1027232;28;20974;-50
2023/10/29 00:29:08;;;;;;;3.28;1.77;;;;;;;11.38;100.00;99073.66;1027097;28;20316;-51
2023/10/29 00:29:41;;;;;;;1.45;1.35;;;;;;;11.44;100.00;99067.25;1027097;28;20302;-49
2023/10/29 00:30:13;;;;;;;2.03;1.70;;;;;;;11.40;100.00;99076.03;1027015;28;20412;-51
2023/10/29 00:30:45;;;;;;;4.68;2.00;;;;;;;11.39;100.00;99071.78;1027031;28;20862;-48
2023/10/29 00:31:16;;;;;;;3.40;1.80;;;;;;;11.43;100.00;99060.31;1027121;28;20313;-54
2023/10/29 00:31:48;;;;;;;2.15;1.20;;;;;;;11.43;100.00;99065.66;1026903;28;20342;-53
2023/10/29 00:32:19;;;;;;;5.50;1.92;;;;;;;11.39;100.00;99075.25;1023571;28;20295;-53
2023/10/29 00:32:52;;;;;;;4.07;1.63;;;;;;;11.43;100.00;99057.66;1022886;28;20317;-50
2023/10/29 00:33:24;;;;;;;2.15;1.27;;;;;;;11.40;100.00;99063.53;1023607;28;20310;-54
2023/10/29 00:33:57;;;;;;;3.10;1.85;;;;;;;11.48;100.00;99064.06;1024514;28;20310;-49
2023/10/29 00:34:31;;;;;;;4.25;1.55;;;;;;;11.43;100.00;99051.53;1024957;28;20314;-53
2023/10/29 00:35:05;;;;;;;1.20;1.10;;;;;;;11.43;100.00;99052.31;1024153;28;20398;-49
2023/10/29 00:35:36;;;;;;;4.10;2.17;;;;;;;11.46;100.00;99051.00;1022377;28;20328;-51
2023/10/29 00:36:12;;;;;;;1.52;1.27;;;;;;;11.46;100.00;99051.00;1027415;28;20871;-52
2023/10/29 00:36:43;;;;;;;3.00;1.35;;;;;;;11.49;100.00;99052.31;1027016;28;20317;-51
2023/10/29 00:37:18;;;;;;;1.63;1.50;;;;;;;11.45;100.00;99049.38;1023286;28;20421;-50
2023/10/29 00:37:50;;;;;;;2.20;1.30;;;;;;;11.51;100.00;99053.69;1023351;28;20291;-49
2023/10/29 00:38:21;;;;;;;3.58;1.75;;;;;;;11.53;100.00;99050.75;1021404;28;20838;-51
2023/10/29 00:38:53;;;;;;;5.07;1.55;;;;;;;11.50;100.00;99051.25;1023444;28;20821;-48
2023/10/29 00:39:24;;;;;;;2.08;1.60;;;;;;;11.53;100.00;99045.41;1022827;28;20306;-52
2023/10/29 00:39:56;;;;;;;2.17;1.00;;;;;;;11.48;100.00;99042.72;1023200;29;20704;-50
2023/10/29 00:40:30;;;;;;;4.07;1.55;;;;;;;11.55;100.00;99028.09;1023009;29;20302;-49
2023/10/29 00:41:03;;;;;;;3.28;1.38;;;;;;;11.54;100.00;99039.00;1024161;28;20782;-52
2023/10/29 00:41:35;;;;;;;1.58;1.20;;;;;;;11.55;100.00;99037.94;1028149;28;20736;-54
2023/10/29 00:42:07;;;;;;;2.60;1.35;;;;;;;11.54;100.00;99047.00;1027080;28;20309;-52
2023/10/29 00:42:38;;;;;;;2.08;1.65;;;;;;;11.54;100.00;99041.69;1031040;28;20393;-54
2023/10/29 00:43:16;;;;;;;2.88;1.55;;;;;;;11.53;100.00;99053.41;1030691;28;20340;-54
2023/10/29 00:43:47;;;;;;;2.58;1.30;;;;;;;11.48;100.00;99048.84;1027049;28;20302;-54
2023/10/29 00:44:19;;;;;;;4.60;1.85;;;;;;;11.53;100.00;99045.41;1025873;28;20368;-53
2023/10/29 00:44:51;;;;;;;3.38;2.20;;;;;;;11.46;100.00;99045.66;1023937;28;20808;-54
2023/10/29 00:45:23;;;;;;;5.00;1.42;;;;;;;11.47;100.00;99047.25;1031199;28;20305;-54
2023/10/29 00:45:55;;;;;;;2.50;1.38;;;;;;;11.52;100.00;99038.50;1031372;28;20815;-54
2023/10/29 00:46:27;;;;;;;1.75;1.27;;;;;;;11.51;100.00;99044.88;1029513;28;20298;-54
2023/10/29 00:46:58;;;;;;;6.03;1.70;;;;;;;11.49;100.00;99039.78;1026971;28;20645;-53
2023/10/29 00:47:30;;;;;;;2.33;1.52;;;;;;;11.54;100.00;99036.34;1023118;29;20395;-53
2023/10/29 00:48:02;;;;;;;3.55;1.83;;;;;;;11.47;100.00;99036.59;1023155;29;20781;-54
2023/10/29 00:48:34;;;;;;;2.08;1.48;;;;;;;11.55;100.00;99024.63;1027557;28;20309;-53
2023/10/29 00:49:06;;;;;;;5.03;1.58;;;;;;;11.56;100.00;99018.22;1030865;28;20320;-51
2023/10/29 00:49:37;;;;;;;3.50;1.17;;;;;;;11.60;100.00;99016.59;1031206;28;20668;-50
2023/10/29 00:50:09;;;;;;;3.83;1.42;;;;;;;11.58;100.00;99016.06;1030957;28;20365;-53
2023/10/29 00:50:41;;;;;;;2.88;1.38;;;;;;;11.59;100.00;99017.69;1026633;28;20302;-54
2023/10/29 00:51:14;;;;;;;7.72;1.80;;;;;;;11.56;100.00;99019.00;1026914;28;20314;-54
2023/10/29 00:51:46;;;;;;;3.80;1.73;;;;;;;11.58;100.00;99011.53;1026082;28;20302;-53
2023/10/29 00:52:17;;;;;;;1.85;1.73;;;;;;;11.59;100.00;99013.16;1023004;29;20306;-53
2023/10/29 00:52:49;;;;;;;4.53;1.40;;;;;;;11.59;100.00;99007.81;1024160;28;20386;-54
2023/10/29 00:53:21;;;;;;;3.63;1.42;;;;;;;11.58;100.00;99005.41;1023641;28;20307;-54
2023/10/29 00:53:52;;;;;;;4.57;1.25;;;;;;;11.55;100.00;99016.63;1022787;28;20307;-54
2023/10/29 00:54:24;;;;;;;2.42;1.48;;;;;;;11.59;100.00;99018.47;1018181;29;20651;-53
2023/10/29 00:54:56;;;;;;;3.03;1.65;;;;;;;11.59;100.00;99023.00;1016161;29;20319;-54
2023/10/29 00:55:27;;;;;;;3.47;1.38;;;;;;;11.57;100.00;99014.47;1018424;29;20750;-54
2023/10/29 00:55:59;;;;;;;3.40;1.98;;;;;;;11.60;100.00;99013.94;1019621;29;20338;-54
2023/10/29 00:56:32;;;;;;;4.65;1.50;;;;;;;11.58;100.00;99024.09;1022657;28;20315;-54
2023/10/29 00:57:04;;;;;;;3.63;2.22;;;;;;;11.58;100.00;99021.41;1026639;28;20713;-53
2023/10/29 00:57:36;;;;;;;6.90;1.63;;;;;;;11.54;100.00;99036.34;1027135;28;20500;-54
2023/10/29 00:58:09;;;;;;;1.75;1.27;;;;;;;11.53;100.00;99032.09;1027248;28;20441;-54
2023/10/29 00:58:41;;;;;;;6.18;1.65;;;;;;;11.52;100.00;99027.81;1026865;28;20308;-54
2023/10/29 00:59:14;;;;;;;2.65;1.35;;;;;;;11.50;100.00;99024.59;1023050;28;20313;-54
2023/10/29 00:59:47;;;;;;;3.25;1.23;;;;;;;11.51;100.00;99016.34;1023215;29;20669;-54
2023/10/29 01:00:21;;;;;;;5.60;1.40;;;;;;;11.58;100.00;99013.41;1023001;29;20377;-54
2023/10/29 01:00:52;;;;;;;3.80;1.65;;;;;;;11.61;100.00;99007.53;1023135;28;20408;-54
2023/10/29 01:01:25;;;;;;;1.70;1.27;;;;;;;11.61;100.00;99008.34;1024773;28;20360;-52
2023/10/29 01:01:56;;;;;;;1.95;1.40;;;;;;;11.56;100.00;99007.56;1023038;28;20369;-53
2023/10/29 01:02:28;;;;;;;3.40;1.10;;;;;;;11.60;100.00;99003.28;1018895;29;20402;-55
2023/10/29 01:03:00;;;;;;;5.22;1.85;;;;;;;11.56;100.00;98999.56;1018674;29;20315;-53
2023/10/29 01:03:32;;;;;;;2.65;1.75;;;;;;;11.58;100.00;98997.41;1022845;29;20298;-53
2023/10/29 01:04:04;;;;;;;2.13;1.13;;;;;;;11.52;100.00;99001.16;1023591;28;20353;-54
2023/10/29 01:04:36;;;;;;;3.25;1.83;;;;;;;11.55;100.00;99000.63;1031129;28;20320;-55
2023/10/29 01:05:08;;;;;;;2.50;1.50;;;;;;;11.54;100.00;98983.81;1031866;28;20308;-54
2023/10/29 01:05:40;;;;;;;2.55;1.42;;;;;;;11.53;100.00;98997.41;1030734;28;20298;-54
2023/10/29 01:06:11;;;;;;;3.35;1.67;;;;;;;11.59;100.00;98983.81;1030694;28;20939;-53
2023/10/29 01:06:44;;;;;;;3.78;1.58;;;;;;;11.60;100.00;98982.75;1024237;28;20705;-53
2023/10/29 01:07:16;;;;;;;2.00;1.30;;;;;;;11.57;100.00;98985.16;1023026;28;20776;-53
2023/10/29 01:07:48;;;;;;;2.78;1.20;;;;;;;11.56;100.00;98984.34;1022951;28;20318;-55
2023/10/29 01:08:20;;;;;;;1.90;1.45;;;;;;;11.51;100.00;98997.69;1022958;28;20303;-54
2023/10/29 01:08:52;;;;;;;2.03;1.48;;;;;;;11.55;100.00;98979.28;1023073;28;20450;-54
2023/10/29 01:09:24;;;;;;;1.88;1.27;;;;;;;11.63;100.00;98973.41;1027070;28;20309;-54
2023/10/29 01:10:00;;;;;;;3.13;1.23;;;;;;;11.66;100.00;98978.19;1027317;28;20293;-53
2023/10/29 01:10:32;;;;;;;2.58;1.60;;;;;;;11.64;100.00;98977.66;1027432;28;20302;-54
2023/10/29 01:11:07;;;;;;;4.70;1.60;;;;;;;11.60;100.00;98976.59;1027444;28;20302;-54
2023/10/29 01:11:38;;;;;;;1.75;1.65;;;;;;;11.61;100.00;98968.34;1023505;28;20398;-54
2023/10/29 01:12:19;;;;;;;4.32;1.52;;;;;;;11.59;100.00;98969.69;1022992;28;20302;-49
2023/10/29 01:12:51;;;;;;;2.33;1.80;;;;;;;11.59;100.00;98975.00;1018992;29;20362;-49
2023/10/29 01:13:23;;;;;;;1.55;1.45;;;;;;;11.62;100.00;98969.13;1024692;28;20394;-50
2023/10/29 01:13:56;;;;;;;2.97;1.42;;;;;;;11.60;100.00;98981.94;1026955;28;20502;-52
2023/10/29 01:14:27;;;;;;;1.60;1.05;;;;;;;11.59;100.00;98969.69;1027450;28;20304;-52
2023/10/29 01:14:59;;;;;;;3.42;1.27;;;;;;;11.58;100.00;98978.75;1032253;28;20297;-53
2023/10/29 01:15:32;;;;;;;2.90;1.10;;;;;;;11.56;100.00;98986.22;1027685;28;20369;-54
2023/10/29 01:16:04;;;;;;;1.42;1.33;;;;;;;11.53;100.00;98982.22;1023246;28;20756;-54
2023/10/29 01:16:36;;;;;;;1.83;1.20;;;;;;;11.57;100.00;98982.47;1022998;28;20409;-54
2023/10/29 01:17:09;;;;;;;4.70;1.13;;;;;;;11.57;100.00;98972.63;1023229;28;20306;-54
2023/10/29 01:17:41;;;;;;;3.28;1.40;;;;;;;11.58;100.00;98978.75;1023104;28;20306;-54
2023/10/29 01:18:13;;;;;;;1.52;1.05;;;;;;;11.54;100.00;98983.81;1021598;28;20404;-55
2023/10/29 01:18:45;;;;;;;7.38;1.67;;;;;;;11.52;100.00;98985.16;1023385;28;20812;-55
2023/10/29 01:19:17;;;;;;;2.70;0.82;;;;;;;11.55;100.00;98989.94;1027252;28;20302;-54
2023/10/29 01:19:48;;;;;;;1.27;1.08;;;;;;;11.53;100.00;98981.41;1023152;28;20659;-54
2023/10/29 01:20:20;;;;;;;2.05;1.13;;;;;;;11.55;100.00;98974.75;1023431;28;20318;-54
2023/10/29 01:20:52;;;;;;;1.52;1.05;;;;;;;11.58;100.00;98978.75;1022768;28;20351;-54
2023/10/29 01:21:26;;;;;;;3.05;1.67;;;;;;;11.59;100.00;98975.00;1023404;28;20816;-54
2023/10/29 01:21:58;;;;;;;1.45;0.88;;;;;;;11.62;100.00;98985.13;1027236;28;20658;-54
2023/10/29 01:22:30;;;;;;;2.75;1.15;;;;;;;11.58;100.00;98984.09;1026713;28;20302;-52
2023/10/29 01:23:01;;;;;;;3.42;1.38;;;;;;;11.55;100.00;98982.75;1023168;28;20306;-50
2023/10/29 01:23:33;;;;;;;1.23;0.77;;;;;;;11.58;100.00;98984.09;1023047;28;20745;-48
2023/10/29 01:24:05;;;;;;;2.17;1.52;;;;;;;11.58;100.00;98979.53;1022833;28;20306;-50
2023/10/29 01:24:39;;;;;;;2.45;1.20;;;;;;;11.59;100.00;98980.34;1022772;28;20412;-50
2023/10/29 01:25:11;;;;;;;4.38;1.00;;;;;;;11.62;100.00;98985.13;1023746;28;20397;-50
2023/10/29 01:25:43;;;;;;;2.17;0.93;;;;;;;11.68;100.00;98981.41;1022134;28;20795;-50
2023/10/29 01:26:15;;;;;;;3.10;0.80;;;;;;;11.68;100.00;98984.06;1019209;29;20307;-51
2023/10/29 01:26:46;;;;;;;1.30;1.10;;;;;;;11.69;100.00;98967.00;1021414;28;20787;-52
2023/10/29 01:27:18;;;;;;;2.72;1.58;;;;;;;11.71;100.00;98962.97;1023745;28;20440;-49
2023/10/29 01:27:49;;;;;;;3.03;1.25;;;;;;;11.67;100.00;98961.13;1024084;28;20318;-55
2023/10/29 01:28:21;;;;;;;1.55;0.90;;;;;;;11.63;100.00;98954.75;1023747;28;20325;-49
2023/10/29 01:28:53;;;;;;;2.28;1.23;;;;;;;11.60;100.00;98948.06;1024558;28;20314;-53
2023/10/29 01:29:24;;;;;;;3.17;1.40;;;;;;;11.62;100.00;98951.28;1023839;28;20820;-52
2023/10/29 01:29:56;;;;;;;2.20;1.02;;;;;;;11.62;100.00;98963.81;1023982;28;20315;-55
2023/10/29 01:30:28;;;;;;;4.63;1.50;;;;;;;11.60;100.00;98963.28;1022112;28;20329;-51
2023/10/29 01:31:00;;;;;;;1.02;0.93;;;;;;;11.58;100.00;98963.53;1022992;28;20306;-50
2023/10/29 01:31:31;;;;;;;1.67;1.30;;;;;;;11.58;100.00;98968.88;1023023;29;20317;-52
2023/10/29 01:32:04;;;;;;;2.50;1.10;;;;;;;11.57;100.00;98971.81;1020267;29;20397;-51
2023/10/29 01:32:35;;;;;;;2.97;0.82;;;;;;;11.58;100.00;98962.75;1023112;28;20329;-54
2023/10/29 01:33:07;;;;;;;1.92;1.20;;;;;;;11.60;100.00;98971.28;1022789;28;20816;-50
2023/10/29 01:33:39;;;;;;;4.68;1.33;;;;;;;11.61;100.00;98964.88;1023262;28;20724;-51
2023/10/29 01:34:10;;;;;;;1.10;0.88;;;;;;;11.60;100.00;98955.28;1023133;28;20299;-51
2023/10/29 01:34:42;;;;;;;1.23;1.05;;;;;;;11.60;100.00;98947.28;1022879;28;20298;-51
2023/10/29 01:35:14;;;;;;;3.72;1.10;;;;;;;11.62;100.00;98940.59;1022957;28;20389;-53
2023/10/29 01:35:45;;;;;;;6.30;1.10;;;;;;;11.68;100.00;98936.06;1023025;28;20287;-51
2023/10/29 01:36:17;;;;;;;0.70;0.70;;;;;;;11.65;100.00;98937.41;1021721;28;20291;-52
2023/10/29 01:36:49;;;;;;;2.42;1.10;;;;;;;11.69;100.00;98916.31;1023208;28;20302;-51
2023/10/29 01:37:20;;;;;;;1.42;0.98;;;;;;;11.69;100.00;98914.44;1022829;28;20287;-49
2023/10/29 01:37:52;;;;;;;0.98;0.90;;;;;;;11.72;100.00;98910.44;1019322;29;20317;-54
2023/10/29 01:38:24;;;;;;;3.10;1.20;;;;;;;11.73;100.00;98909.38;1023245;29;20329;-55
2023/10/29 01:38:55;;;;;;;2.90;1.92;;;;;;;11.67;100.00;98923.78;1019527;29;20825;-54
2023/10/29 01:39:27;;;;;;;0.80;0.80;;;;;;;11.73;100.00;98906.69;1023615;28;20350;-54
2023/10/29 01:39:59;;;;;;;3.75;0.70;;;;;;;11.72;100.00;98915.78;1027030;28;20309;-55
2023/10/29 01:40:30;;;;;;;0.98;0.80;;;;;;;11.77;100.00;98907.75;1026238;28;20298;-53
2023/10/29 01:41:02;;;;;;;3.70;1.75;;;;;;;11.77;100.00;98892.53;1030025;28;20301;-54
2023/10/29 01:41:34;;;;;;;2.15;1.00;;;;;;;11.75;100.00;98904.56;1027151;28;20309;-55
2023/10/29 01:42:06;;;;;;;1.33;1.10;;;;;;;11.72;100.00;98899.78;1025191;28;20322;-54
2023/10/29 01:42:41;;;;;;;7.03;1.13;;;;;;;11.73;100.00;98904.03;1024924;28;20306;-54
2023/10/29 01:43:12;;;;;;;2.63;0.93;;;;;;;11.70;100.00;98916.03;1025143;28;20357;-55
2023/10/29 01:43:44;;;;;;;1.25;0.90;;;;;;;11.66;100.00;98912.31;1026770;28;20890;-52
2023/10/29 01:44:15;;;;;;;4.13;1.00;;;;;;;11.64;100.00;98909.13;1026864;28;20323;-52
2023/10/29 01:44:47;;;;;;;2.08;0.98;;;;;;;11.69;100.00;98916.31;1026886;28;20302;-51
2023/10/29 01:45:19;;;;;;;1.85;0.75;;;;;;;11.67;100.00;98916.59;1026989;28;20306;-54
2023/10/29 01:45:51;;;;;;;1.65;1.05;;;;;;;11.69;100.00;98910.97;1026937;28;20372;-52
2023/10/29 01:46:23;;;;;;;1.83;0.88;;;;;;;11.64;100.00;98921.66;1026889;28;20309;-50
2023/10/29 01:46:55;;;;;;;1.77;0.80;;;;;;;11.67;100.00;98913.91;1026809;28;20298;-52
2023/10/29 01:47:26;;;;;;;2.15;1.20;;;;;;;11.68;100.00;98910.19;1029832;28;20313;-52
2023/10/29 01:47:58;;;;;;;1.25;0.98;;;;;;;11.69;100.00;98911.78;1026628;28;20396;-51
2023/10/29 01:48:30;;;;;;;1.92;0.93;;;;;;;11.71;100.00;98914.19;1030880;28;20304;-50
2023/10/29 01:49:04;;;;;;;1.73;0.80;;;;;;;11.71;100.00;98914.19;1030029;28;20305;-51
2023/10/29 01:49:35;;;;;;;2.60;0.80;;;;;;;11.72;100.00;98910.44;1023195;28;20306;-51
2023/10/29 01:50:07;;;;;;;0.77;0.60;;;;;;;11.67;100.00;98907.78;1023435;28;20306;-50
2023/10/29 01:50:39;;;;;;;1.67;1.15;;;;;;;11.62;100.00;98913.94;1025197;28;20358;-50
2023/10/29 01:51:11;;;;;;;0.90;0.88;;;;;;;11.62;100.00;98910.47;1026985;28;20461;-55
2023/10/29 01:51:43;;;;;;;3.47;0.98;;;;;;;11.72;100.00;98905.09;1026974;28;20298;-54
2023/10/29 01:52:14;;;;;;;0.80;0.80;;;;;;;11.70;100.00;98896.56;1031023;28;20300;-55
2023/10/29 01:52:46;;;;;;;1.75;0.88;;;;;;;11.75;100.00;98899.22;1034792;28;20295;-54
2023/10/29 01:53:18;;;;;;;1.50;0.85;;;;;;;11.74;100.00;98892.28;1034989;28;20297;-51
2023/10/29 01:53:49;;;;;;;1.10;0.88;;;;;;;11.84;100.00;98881.63;1033766;28;20388;-53
2023/10/29 01:54:22;;;;;;;1.05;0.60;;;;;;;11.85;100.00;98875.22;1027232;28;21439;-51
2023/10/29 01:54:53;;;;;;;2.95;0.82;;;;;;;11.83;100.00;98887.25;1026723;28;20389;-51
2023/10/29 01:55:25;;;;;;;2.75;0.80;;;;;;;11.83;100.00;98877.38;1026649;28;20297;-52
2023/10/29 01:55:57;;;;;;;0.80;0.80;;;;;;;11.80;100.00;98877.13;1026925;28;20320;-52
2023/10/29 01:56:28;;;;;;;1.83;1.15;;;;;;;11.83;100.00;98879.25;1030984;28;20468;-51
2023/10/29 01:57:00;;;;;;;3.15;0.80;;;;;;;11.84;100.00;98870.97;1030889;28;20803;-51
2023/10/29 01:57:34;;;;;;;1.60;1.50;;;;;;;11.84;100.00;98870.97;1026847;28;20306;-51
2023/10/29 01:58:06;;;;;;;1.10;1.00;;;;;;;11.91;100.00;98855.47;1025927;28;20408;-51
2023/10/29 01:58:37;;;;;;;5.43;0.98;;;;;;;11.89;100.00;98868.28;1019412;29;20386;-54
2023/10/29 01:59:13;;;;;;;2.10;1.02;;;;;;;11.88;100.00;98876.56;1026957;28;20404;-54
2023/10/29 01:59:44;;;;;;;1.33;0.80;;;;;;;11.92;100.00;98874.94;1026789;28;20320;-54
2023/10/29 02:00:16;;;;;;;2.60;0.90;;;;;;;11.90;100.00;98869.88;1023382;28;20849;-55
2023/10/29 02:00:48;;;;;;;1.30;0.77;;;;;;;11.90;100.00;98872.53;1025867;28;20325;-54
2023/10/29 02:01:20;;;;;;;0.82;0.55;;;;;;;11.95;100.00;98867.19;1023077;28;20333;-55
2023/10/29 02:01:52;;;;;;;8.63;3.17;;;;;;;11.97;100.00;98857.03;1030983;28;20309;-54
2023/10/29 02:02:25;;;;;;;4.90;1.73;;;;;;;11.95;100.00;98861.03;1032467;28;20396;-55
2023/10/29 02:02:57;;;;;;;0.98;0.70;;;;;;;11.93;100.00;98858.66;1033061;28;20309;-55
2023/10/29 02:03:28;;;;;;;1.23;0.80;;;;;;;11.91;100.00;98873.34;1029456;28;20305;-55
2023/10/29 02:04:00;;;;;;;1.67;1.23;;;;;;;11.95;100.00;98867.19;1023421;28;20299;-55
2023/10/29 02:04:33;;;;;;;2.17;1.27;;;;;;;11.95;100.00;98872.53;1022911;28;20346;-54
2023/10/29 02:05:06;;;;;;;2.00;0.98;;;;;;;11.95;100.00;98867.19;1023068;28;20710;-53
2023/10/29 02:05:38;;;;;;;1.88;0.90;;;;;;;11.93;100.00;98869.31;1022817;29;20314;-54
2023/10/29 02:06:19;;;;;;;1.20;0.88;;;;;;;11.96;100.00;98863.44;1021318;28;20327;-55
2023/10/29 02:06:51;;;;;;;0.95;0.65;;;;;;;12.00;100.00;98867.16;1024558;28;20298;-53
2023/10/29 02:07:22;;;;;;;1.02;0.70;;;;;;;11.99;100.00;98878.91;1025000;28;20686;-55
2023/10/29 02:07:54;;;;;;;2.58;0.70;;;;;;;11.99;100.00;98865.56;1026856;28;20950;-55
2023/10/29 02:08:25;;;;;;;5.30;1.02;;;;;;;11.93;100.00;98873.88;1026268;28;20294;-55
2023/10/29 02:08:57;;;;;;;2.10;0.80;;;;;;;11.90;100.00;98869.88;1022829;28;20638;-54
2023/10/29 02:09:29;;;;;;;4.75;1.00;;;;;;;11.85;100.00;98867.22;1022860;28;20624;-55
2023/10/29 02:10:01;;;;;;;1.30;0.75;;;;;;;11.85;100.00;98869.91;1018819;29;20314;-55
2023/10/29 02:10:33;;;;;;;1.20;0.73;;;;;;;11.85;100.00;98871.78;1019238;29;20649;-55
2023/10/29 02:11:04;;;;;;;0.80;0.70;;;;;;;11.83;100.00;98868.56;1025148;28;20727;-55
2023/10/29 02:11:39;;;;;;;1.63;0.80;;;;;;;11.82;100.00;98872.31;1023096;28;20325;-54
2023/10/29 02:12:11;;;;;;;1.25;1.00;;;;;;;11.81;100.00;98871.53;1022456;29;20868;-54
2023/10/29 02:12:43;;;;;;;2.17;1.45;;;;;;;11.81;100.00;98874.19;1018830;29;20299;-55
2023/10/29 02:13:16;;;;;;;4.35;1.00;;;;;;;11.79;100.00;98878.19;1014968;29;20311;-55
2023/10/29 02:13:48;;;;;;;2.08;1.10;;;;;;;11.81;100.00;98870.72;1014903;29;20467;-51
2023/10/29 02:14:20;;;;;;;2.15;1.13;;;;;;;11.79;100.00;98868.31;1019634;29;20311;-51
2023/10/29 02:14:52;;;;;;;1.58;0.70;;;;;;;11.85;100.00;98872.56;1023476;28;20678;-52
2023/10/29 02:15:23;;;;;;;5.85;0.70;;;;;;;11.81;100.00;98876.84;1026735;28;20656;-50
2023/10/29 02:15:55;;;;;;;1.40;0.73;;;;;;;11.77;100.00;98870.41;1026759;28;20673;-51
2023/10/29 02:16:27;;;;;;;2.00;0.85;;;;;;;11.77;100.00;98871.22;1026592;28;20417;-54
2023/10/29 02:16:58;;;;;;;1.33;0.60;;;;;;;11.74;100.00;98871.75;1024322;28;20782;-55
2023/10/29 02:17:30;;;;;;;0.98;0.47;;;;;;;11.79;100.00;98875.53;1025414;28;20837;-55
2023/10/29 02:18:02;;;;;;;2.20;0.90;;;;;;;11.82;100.00;98874.97;1022809;28;20963;-51
2023/10/29 02:18:35;;;;;;;0.63;0.52;;;;;;;11.90;100.00;98869.88;1023385;28;20315;-55
2023/10/29 02:19:06;;;;;;;0.93;0.85;;;;;;;11.86;100.00;98879.50;1023366;28;20781;-55
2023/10/29 02:19:38;;;;;;;0.60;0.60;;;;;;;11.85;100.00;98877.91;1023421;28;20844;-55
2023/10/29 02:20:11;;;;;;;0.98;0.63;;;;;;;11.85;100.00;98871.78;1028245;28;20820;-54
2023/10/29 02:20:44;;;;;;;1.58;0.75;;;;;;;11.83;100.00;98869.38;1026557;28;20341;-55
2023/10/29 02:21:16;;;;;;;2.72;1.08;;;;;;;11.87;100.00;98867.75;1022889;28;20298;-54
2023/10/29 02:21:47;;;;;;;2.03;1.08;;;;;;;11.89;100.00;98862.94;1023071;28;20321;-54
2023/10/29 02:22:19;;;;;;;1.25;0.65;;;;;;;11.92;100.00;98867.72;1024426;28;20305;-54
2023/10/29 02:22:51;;;;;;;0.95;0.70;;;;;;;11.93;100.00;98869.31;1019424;28;20311;-55
2023/10/29 02:23:22;;;;;;;0.57;0.57;;;;;;;11.87;100.00;98870.44;1022893;28;20397;-54
2023/10/29 02:23:54;;;;;;;1.42;0.70;;;;;;;11.86;100.00;98868.81;1022724;28;21182;-55
2023/10/29 02:24:27;;;;;;;3.42;0.75;;;;;;;11.89;100.00;98865.63;1025289;28;20294;-55
2023/10/29 02:24:58;;;;;;;1.15;0.80;;;;;;;11.86;100.00;98868.81;1024977;28;20309;-55
2023/10/29 02:25:30;;;;;;;2.22;0.75;;;;;;;11.88;100.00;98877.34;1023207;28;20302;-56
2023/10/29 02:26:02;;;;;;;3.78;1.35;;;;;;;11.86;100.00;98873.38;1023429;28;20295;-55
2023/10/29 02:26:34;;;;;;;2.60;0.90;;;;;;;11.83;100.00;98872.03;1023283;28;20309;-55
2023/10/29 02:27:05;;;;;;;2.47;0.77;;;;;;;11.82;100.00;98867.78;1026808;28;20302;-52
2023/10/29 02:27:37;;;;;;;1.75;1.23;;;;;;;11.88;100.00;98869.34;1026809;28;20339;-52
2023/10/29 02:28:10;;;;;;;0.55;0.55;;;;;;;11.84;100.00;98865.63;1026896;28;20301;-50
2023/10/29 02:28:42;;;;;;;1.25;0.70;;;;;;;11.82;100.00;98878.44;1026066;28;20667;-52
2023/10/29 02:29:14;;;;;;;1.10;0.65;;;;;;;11.84;100.00;98870.97;1027168;28;20337;-54
2023/10/29 02:29:46;;;;;;;1.27;0.80;;;;;;;11.81;100.00;98874.19;1024847;28;20397;-55
2023/10/29 02:30:17;;;;;;;0.70;0.70;;;;;;;11.79;100.00;98878.19;1024932;28;20298;-55
2023/10/29 02:30:50;;;;;;;5.32;0.90;;;;;;;11.86;100.00;98873.38;1023707;28;20412;-51
2023/10/29 02:31:22;;;;;;;4.07;0.75;;;;;;;11.89;100.00;98878.16;1023231;28;20717;-51